createdAt,value
2022-09-28T00:01:25.667Z,8.50
2022-09-28T00:03:57.866Z,8.70
2022-09-28T00:06:29.468Z,8.10
2022-09-28T00:08:58.288Z,7.40
2022-09-28T00:11:27.870Z,8.10
2022-09-28T00:13:59.585Z,5.80
2022-09-28T00:16:31.248Z,5.20
2022-09-28T00:19:00.431Z,5.30
2022-09-28T00:21:31.232Z,3.10
2022-09-28T00:24:14.532Z,3.20
2022-09-28T00:26:46.434Z,3.50
2022-09-28T00:29:20.333Z,2.90
2022-09-28T00:31:59.423Z,2.70
2022-09-28T00:34:36.603Z,3.20
2022-09-28T00:37:11.961Z,3.00
2022-09-28T00:39:46.265Z,3.90
2022-09-28T00:42:20.118Z,2.50
2022-09-28T00:44:56.426Z,2.80
2022-09-28T00:47:43.674Z,2.50
2022-09-28T00:50:21.203Z,2.50
2022-09-28T00:52:55.554Z,2.30
2022-09-28T00:55:37.345Z,2.20
2022-09-28T00:58:13.745Z,2.40
2022-09-28T01:00:46.301Z,1.80
2022-09-28T01:03:26.250Z,2.20
2022-09-28T01:06:04.036Z,1.80
2022-09-28T01:08:35.542Z,2.10
2022-09-28T01:11:05.242Z,2.20
2022-09-28T01:13:34.143Z,2.30
2022-09-28T01:16:12.102Z,2.30
2022-09-28T01:18:53.197Z,2.20
2022-09-28T01:21:23.366Z,2.50
2022-09-28T01:24:10.338Z,2.60
2022-09-28T01:27:04.952Z,2.10
2022-09-28T01:29:43.628Z,1.80
2022-09-28T01:32:34.896Z,2.10
2022-09-28T01:35:08.592Z,1.90
2022-09-28T01:37:44.096Z,2.30
2022-09-28T01:40:15.626Z,2.00
2022-09-28T01:42:46.977Z,1.80
2022-09-28T01:45:22.515Z,2.50
2022-09-28T01:47:56.804Z,2.20
2022-09-28T01:50:28.256Z,2.10
2022-09-28T01:53:02.833Z,1.90
2022-09-28T01:55:37.083Z,1.70
2022-09-28T01:58:16.974Z,2.00
2022-09-28T02:00:52.315Z,2.60
2022-09-28T02:03:29.165Z,5.30
2022-09-28T02:06:05.652Z,3.70
2022-09-28T02:08:37.540Z,2.20
2022-09-28T02:11:10.898Z,2.10
2022-09-28T02:13:42.731Z,2.00
2022-09-28T02:16:16.876Z,2.10
2022-09-28T02:18:45.940Z,2.10
2022-09-28T02:21:18.581Z,2.00
2022-09-28T02:23:54.445Z,1.90
2022-09-28T02:26:27.001Z,2.50
2022-09-28T02:28:55.290Z,1.70
2022-09-28T02:31:24.054Z,2.90
2022-09-28T02:33:53.886Z,2.60
2022-09-28T02:36:24.520Z,2.70
2022-09-28T02:38:53.207Z,2.60
2022-09-28T02:41:41.546Z,2.80
2022-09-28T02:44:39.082Z,3.00
2022-09-28T02:47:21.898Z,3.10
2022-09-28T02:49:58.581Z,3.10
2022-09-28T02:52:49.591Z,3.20
2022-09-28T02:55:25.983Z,2.90
2022-09-28T02:58:12.609Z,3.10
2022-09-28T03:00:47.230Z,3.60
2022-09-28T03:03:25.907Z,3.10
2022-09-28T03:06:01.452Z,3.10
2022-09-28T03:08:42.564Z,3.60
2022-09-28T03:11:17.776Z,3.10
2022-09-28T03:13:49.162Z,3.50
2022-09-28T03:16:20.058Z,3.40
2022-09-28T03:18:49.923Z,3.10
2022-09-28T03:21:18.662Z,3.50
2022-09-28T03:23:47.448Z,3.20
2022-09-28T03:26:19.367Z,3.50
2022-09-28T03:28:47.724Z,3.70
2022-09-28T03:31:20.531Z,3.80
2022-09-28T03:33:50.720Z,3.90
2022-09-28T03:36:19.175Z,4.50
2022-09-28T03:38:47.478Z,4.30
2022-09-28T03:41:16.201Z,4.10
2022-09-28T03:43:44.685Z,4.20
2022-09-28T03:46:28.183Z,4.30
2022-09-28T03:48:59.021Z,4.80
2022-09-28T03:51:27.269Z,5.20
2022-09-28T03:53:56.934Z,5.40
2022-09-28T03:56:25.157Z,6.00
2022-09-28T03:58:53.637Z,6.70
2022-09-28T04:01:22.305Z,6.80
2022-09-28T04:03:55.408Z,6.50
2022-09-28T04:06:24.819Z,6.70
2022-09-28T04:08:53.684Z,6.90
2022-09-28T04:11:23.581Z,7.10
2022-09-28T04:13:51.856Z,6.10
2022-09-28T04:16:20.307Z,5.90
2022-09-28T04:19:08.592Z,6.20
2022-09-28T04:21:44.323Z,7.00
2022-09-28T04:24:19.687Z,7.20
2022-09-28T04:26:48.890Z,7.40
2022-09-28T04:29:18.526Z,6.90
2022-09-28T04:31:57.056Z,7.30
2022-09-28T04:34:38.691Z,6.80
2022-09-28T04:37:10.255Z,7.30
2022-09-28T04:39:41.481Z,7.30
2022-09-28T04:42:12.227Z,6.10
2022-09-28T04:44:40.656Z,7.10
2022-09-28T04:47:13.908Z,7.10
2022-09-28T04:50:12.526Z,7.10
2022-09-28T04:53:01.687Z,7.20
2022-09-28T04:55:31.919Z,7.60
2022-09-28T04:58:03.836Z,7.00
2022-09-28T05:00:34.993Z,7.50
2022-09-28T05:03:10.347Z,6.70
2022-09-28T05:05:57.299Z,7.10
2022-09-28T05:08:46.529Z,4.30
2022-09-28T05:11:15.253Z,5.80
2022-09-28T05:13:50.269Z,6.80
2022-09-28T05:16:20.054Z,6.10
2022-09-28T05:19:09.898Z,6.20
2022-09-28T05:21:41.121Z,5.40
2022-09-28T05:24:11.069Z,6.50
2022-09-28T05:26:40.134Z,7.20
2022-09-28T05:29:11.005Z,7.10
2022-09-28T05:32:19.810Z,6.50
2022-09-28T05:35:10.922Z,7.10
2022-09-28T05:37:46.323Z,6.20
2022-09-28T05:40:15.434Z,6.70
2022-09-28T05:42:44.381Z,4.80
2022-09-28T05:45:14.928Z,5.60
2022-09-28T05:47:46.046Z,6.40
2022-09-28T05:50:17.133Z,6.70
2022-09-28T05:52:49.688Z,6.30
2022-09-28T05:55:18.219Z,6.20
2022-09-28T05:57:50.036Z,6.60
2022-09-28T06:00:21.027Z,7.30
2022-09-28T06:03:02.583Z,6.60
2022-09-28T06:05:36.625Z,6.10
2022-09-28T06:08:07.700Z,5.00
2022-09-28T06:10:36.172Z,5.20
2022-09-28T06:13:04.781Z,5.80
2022-09-28T06:15:38.873Z,5.50
2022-09-28T06:18:13.442Z,4.70
2022-09-28T06:21:00.794Z,6.30
2022-09-28T06:23:35.625Z,5.60
2022-09-28T06:26:04.755Z,5.50
2022-09-28T06:28:34.335Z,7.00
2022-09-28T06:31:03.196Z,6.70
2022-09-28T06:33:32.631Z,6.00
2022-09-28T06:36:04.315Z,6.00
2022-09-28T06:38:34.151Z,6.60
2022-09-28T06:41:02.635Z,6.10
2022-09-28T06:43:34.261Z,5.40
2022-09-28T06:46:14.667Z,6.20
2022-09-28T06:48:52.695Z,6.20
2022-09-28T06:51:32.851Z,6.30
2022-09-28T06:54:25.400Z,6.20
2022-09-28T06:57:09.347Z,5.80
2022-09-28T06:59:39.665Z,6.10
2022-09-28T07:02:12.290Z,6.00
2022-09-28T07:04:59.301Z,5.40
2022-09-28T07:07:57.139Z,7.10
2022-09-28T07:10:48.103Z,6.80
2022-09-28T07:13:51.770Z,7.10
2022-09-28T07:16:27.226Z,6.60
2022-09-28T07:19:00.007Z,4.90
2022-09-28T07:21:30.673Z,6.10
2022-09-28T07:24:04.086Z,5.70
2022-09-28T07:26:38.527Z,6.60
2022-09-28T07:29:22.068Z,5.80
2022-09-28T07:32:02.655Z,6.00
2022-09-28T07:34:58.074Z,5.90
2022-09-28T07:38:02.971Z,5.50
2022-09-28T07:40:52.955Z,6.30
2022-09-28T07:43:22.569Z,5.80
2022-09-28T07:45:54.405Z,6.10
2022-09-28T07:48:22.875Z,6.50
2022-09-28T07:51:13.105Z,7.40
2022-09-28T07:53:53.888Z,6.80
2022-09-28T07:56:37.816Z,6.80
2022-09-28T07:59:17.218Z,5.40
2022-09-28T08:02:22.556Z,6.10
2022-09-28T08:04:51.319Z,6.10
2022-09-28T08:07:23.876Z,6.30
2022-09-28T08:10:01.775Z,5.60
2022-09-28T08:12:30.457Z,6.10
2022-09-28T08:15:17.949Z,5.70
2022-09-28T08:18:01.937Z,5.20
2022-09-28T08:20:51.592Z,5.60
2022-09-28T08:23:20.740Z,6.30
2022-09-28T08:25:51.961Z,4.90
2022-09-28T08:28:22.331Z,5.70
2022-09-28T08:30:53.913Z,5.60
2022-09-28T08:33:30.202Z,4.90
2022-09-28T08:36:17.672Z,4.50
2022-09-28T08:39:23.995Z,4.50
2022-09-28T08:42:32.384Z,4.10
2022-09-28T08:45:27.480Z,3.90
2022-09-28T08:48:48.149Z,4.80
2022-09-28T08:51:44.255Z,4.40
2022-09-28T08:54:33.476Z,5.00
2022-09-28T08:57:10.872Z,4.30
2022-09-28T08:59:49.343Z,4.40
2022-09-28T09:02:26.929Z,3.70
2022-09-28T09:05:07.975Z,4.00
2022-09-28T09:08:15.223Z,4.90
2022-09-28T09:10:52.642Z,3.90
2022-09-28T09:13:58.978Z,4.60
2022-09-28T09:16:40.124Z,4.00
2022-09-28T09:19:41.408Z,3.60
2022-09-28T09:22:38.441Z,4.10
2022-09-28T09:25:19.768Z,3.90
2022-09-28T09:28:12.623Z,3.90
2022-09-28T09:30:50.950Z,3.70
2022-09-28T09:33:51.709Z,3.20
2022-09-28T09:36:56.412Z,3.60
2022-09-28T09:39:58.748Z,3.30
2022-09-28T09:43:20.069Z,3.00
2022-09-28T09:46:14.605Z,3.10
2022-09-28T09:49:13.376Z,2.80
2022-09-28T09:51:45.650Z,3.20
2022-09-28T09:54:22.438Z,2.80
2022-09-28T09:56:58.302Z,3.00
2022-09-28T09:59:48.567Z,2.60
2022-09-28T10:02:27.357Z,2.90
2022-09-28T10:05:19.612Z,2.90
2022-09-28T10:07:54.743Z,2.50
2022-09-28T10:10:28.163Z,2.60
2022-09-28T10:13:09.596Z,2.10
2022-09-28T10:15:40.703Z,2.20
2022-09-28T10:18:32.368Z,1.90
2022-09-28T10:21:23.720Z,2.20
2022-09-28T10:24:23.124Z,2.30
2022-09-28T10:26:55.217Z,2.30
2022-09-28T10:29:27.430Z,1.90
2022-09-28T10:31:56.599Z,1.70
2022-09-28T10:34:29.545Z,1.90
2022-09-28T10:37:08.795Z,2.50
2022-09-28T10:39:56.481Z,1.70
2022-09-28T10:42:30.150Z,1.50
2022-09-28T10:45:04.473Z,1.40
2022-09-28T10:47:37.347Z,1.60
2022-09-28T10:50:31.429Z,1.80
2022-09-28T10:53:19.514Z,1.50
2022-09-28T10:56:21.993Z,1.90
2022-09-28T10:58:57.584Z,1.70
2022-09-28T11:01:39.422Z,1.60
2022-09-28T11:04:22.627Z,1.80
2022-09-28T11:06:52.543Z,1.70
2022-09-28T11:09:30.782Z,1.50
2022-09-28T11:12:08.026Z,1.30
2022-09-28T11:14:42.749Z,1.50
2022-09-28T11:17:19.011Z,1.30
2022-09-28T11:20:02.135Z,1.70
2022-09-28T11:22:43.443Z,1.40
2022-09-28T11:25:24.067Z,2.00
2022-09-28T11:28:03.939Z,1.10
2022-09-28T11:30:38.248Z,1.20
2022-09-28T11:33:32.774Z,1.30
2022-09-28T11:36:21.625Z,1.10
2022-09-28T11:38:58.783Z,0.90
2022-09-28T11:42:16.201Z,1.00
2022-09-28T11:44:48.783Z,0.90
2022-09-28T11:47:42.778Z,1.10
2022-09-28T11:50:27.489Z,1.10
2022-09-28T11:53:10.975Z,1.00
2022-09-28T11:55:45.608Z,0.70
2022-09-28T11:58:22.552Z,1.10
2022-09-28T12:00:56.344Z,1.10
2022-09-28T12:03:40.723Z,1.30
2022-09-28T12:06:16.272Z,1.20
2022-09-28T12:08:53.198Z,1.50
2022-09-28T12:11:51.960Z,1.80
2022-09-28T12:14:29.761Z,1.60
2022-09-28T12:17:07.713Z,1.50
2022-09-28T12:19:42.236Z,1.50
2022-09-28T12:22:43.007Z,1.50
2022-09-28T12:25:18.733Z,1.50
2022-09-28T12:27:53.610Z,1.40
2022-09-28T12:30:27.574Z,1.30
2022-09-28T12:33:01.848Z,1.40
2022-09-28T12:35:43.702Z,1.50
2022-09-28T12:38:30.550Z,1.30
2022-09-28T12:41:10.818Z,1.40
2022-09-28T12:44:04.431Z,1.30
2022-09-28T12:46:48.328Z,1.50
2022-09-28T12:52:36.012Z,1.30
2022-09-28T12:55:24.551Z,1.40
2022-09-28T12:58:08.327Z,1.40
2022-09-28T13:00:55.392Z,1.30
2022-09-28T13:03:52.900Z,1.40
2022-09-28T13:06:45.246Z,1.20
2022-09-28T13:09:22.062Z,1.30
2022-09-28T13:12:04.172Z,1.10
2022-09-28T13:14:56.180Z,1.60
2022-09-28T13:17:39.093Z,1.90
2022-09-28T13:20:25.174Z,2.00
2022-09-28T13:23:02.320Z,1.30
2022-09-28T13:25:35.652Z,1.40
2022-09-28T13:28:06.937Z,1.10
2022-09-28T13:30:38.984Z,1.10
2022-09-28T13:33:15.527Z,1.00
2022-09-28T13:35:44.461Z,1.00
2022-09-28T13:38:49.107Z,1.10
2022-09-28T13:41:21.717Z,0.90
2022-09-28T13:44:22.012Z,1.20
2022-09-28T13:47:10.644Z,0.90
2022-09-28T13:52:39.732Z,1.40
2022-09-28T13:55:32.349Z,1.10
2022-09-28T13:58:03.940Z,1.00
2022-09-28T14:00:38.045Z,1.10
2022-09-28T14:03:24.848Z,1.30
2022-09-28T14:06:21.052Z,1.10
2022-09-28T14:09:08.509Z,1.20
2022-09-28T14:11:55.194Z,1.30
2022-09-28T14:14:44.700Z,1.20
2022-09-28T14:17:49.637Z,1.40
2022-09-28T14:20:22.864Z,1.00
2022-09-28T14:23:14.514Z,1.00
2022-09-28T14:25:45.439Z,1.10
2022-09-28T14:28:40.243Z,0.90
2022-09-28T14:31:21.601Z,1.70
2022-09-28T14:33:58.037Z,1.00
2022-09-28T14:36:50.879Z,1.00
2022-09-28T14:39:46.289Z,1.00
2022-09-28T14:42:19.034Z,1.10
2022-09-28T14:45:19.624Z,1.30
2022-09-28T14:48:12.259Z,1.10
2022-09-28T14:50:42.310Z,1.20
2022-09-28T14:53:15.896Z,1.00
2022-09-28T14:55:50.557Z,1.20
2022-09-28T14:58:53.155Z,1.10
2022-09-28T15:01:40.761Z,1.20
2022-09-28T15:04:13.857Z,1.10
2022-09-28T15:06:47.123Z,1.00
2022-09-28T15:09:31.320Z,1.20
2022-09-28T15:12:01.348Z,1.10
2022-09-28T15:14:33.833Z,1.10
2022-09-28T15:17:11.763Z,0.90
2022-09-28T15:19:51.669Z,1.00
2022-09-28T15:22:22.268Z,1.20
2022-09-28T15:25:02.026Z,1.20
2022-09-28T15:27:36.445Z,1.10
2022-09-28T15:30:26.212Z,1.20
2022-09-28T15:33:16.892Z,1.00
2022-09-28T15:35:49.844Z,0.90
2022-09-28T15:38:19.141Z,1.00
2022-09-28T15:40:50.528Z,1.40
2022-09-28T15:43:26.651Z,1.50
2022-09-28T15:46:03.974Z,1.80
2022-09-28T15:48:40.717Z,3.00
2022-09-28T15:51:12.675Z,2.60
2022-09-28T15:53:47.197Z,2.20
2022-09-28T15:56:15.962Z,1.90
2022-09-28T15:59:04.537Z,2.10
2022-09-28T16:01:37.435Z,2.20
2022-09-28T16:04:40.117Z,3.20
2022-09-28T16:07:28.401Z,2.90
2022-09-28T16:10:00.281Z,2.90
2022-09-28T16:12:40.980Z,2.00
2022-09-28T16:15:19.978Z,2.00
2022-09-28T16:17:53.811Z,1.70
2022-09-28T16:20:28.718Z,2.20
2022-09-28T16:23:05.397Z,2.00
2022-09-28T16:25:38.569Z,2.60
2022-09-28T16:28:24.689Z,2.80
2022-09-28T16:31:02.773Z,2.50
2022-09-28T16:33:51.625Z,2.20
2022-09-28T16:36:21.617Z,2.80
2022-09-28T16:38:50.735Z,2.70
2022-09-28T16:41:23.736Z,2.90
2022-09-28T16:43:56.402Z,2.80
2022-09-28T16:46:31.282Z,2.90
2022-09-28T16:49:02.763Z,3.40
2022-09-28T16:51:34.651Z,2.70
2022-09-28T16:54:34.098Z,3.20
2022-09-28T16:57:05.374Z,3.20
2022-09-28T16:59:37.975Z,2.80
2022-09-28T17:02:35.353Z,2.60
2022-09-28T17:05:15.348Z,3.30
2022-09-28T17:07:47.931Z,4.60
2022-09-28T17:10:20.970Z,5.20
2022-09-28T17:12:52.124Z,3.80
2022-09-28T17:15:22.073Z,4.90
2022-09-28T17:17:50.849Z,3.90
2022-09-28T17:20:26.559Z,4.90
2022-09-28T17:23:00.425Z,4.70
2022-09-28T17:25:36.489Z,4.00
2022-09-28T17:28:07.167Z,3.60
2022-09-28T17:30:39.355Z,4.20
2022-09-28T17:33:12.835Z,4.70
2022-09-28T17:35:43.954Z,5.00
2022-09-28T17:38:16.675Z,4.70
2022-09-28T17:40:47.664Z,4.60
2022-09-28T17:43:21.882Z,5.70
2022-09-28T17:45:54.060Z,5.40
2022-09-28T17:48:26.217Z,5.50
2022-09-28T17:51:02.127Z,5.30
2022-09-28T17:53:37.106Z,5.20
2022-09-28T17:56:09.437Z,5.50
2022-09-28T17:58:39.993Z,5.40
2022-09-28T18:01:11.473Z,5.10
2022-09-28T18:03:40.135Z,5.40
2022-09-28T18:06:22.358Z,5.90
2022-09-28T18:08:51.522Z,5.80
2022-09-28T18:11:21.228Z,6.00
2022-09-28T18:13:50.211Z,5.70
2022-09-28T18:16:20.156Z,5.10
2022-09-28T18:18:49.411Z,5.80
2022-09-28T18:21:19.330Z,6.40
2022-09-28T18:23:49.175Z,5.40
2022-09-28T18:26:19.181Z,6.80
2022-09-28T18:28:48.506Z,6.80
2022-09-28T18:31:19.426Z,6.30
2022-09-28T18:33:53.482Z,6.10
2022-09-28T18:36:27.421Z,7.20
2022-09-28T18:39:03.426Z,6.00
2022-09-28T18:41:33.004Z,4.00
2022-09-28T18:44:03.342Z,2.90
2022-09-28T18:46:36.202Z,2.80
2022-09-28T18:49:05.701Z,2.80
2022-09-28T18:51:34.548Z,2.00
2022-09-28T18:54:06.616Z,1.90
2022-09-28T18:56:37.565Z,1.80
2022-09-28T18:59:17.432Z,2.10
2022-09-28T19:01:46.435Z,1.80
2022-09-28T19:04:15.133Z,1.60
2022-09-28T19:06:44.527Z,1.30
2022-09-28T19:09:13.688Z,1.30
2022-09-28T19:11:42.266Z,1.30
2022-09-28T19:14:14.379Z,1.30
2022-09-28T19:16:44.528Z,1.70
2022-09-28T19:19:15.042Z,1.90
2022-09-28T19:21:44.332Z,2.20
2022-09-28T19:24:14.954Z,2.50
2022-09-28T19:26:45.966Z,4.90
2022-09-28T19:29:15.168Z,4.70
2022-09-28T19:31:44.026Z,3.80
2022-09-28T19:34:14.317Z,4.80
2022-09-28T19:36:43.645Z,13.50
2022-09-28T19:39:15.526Z,11.20
2022-09-28T19:41:48.795Z,8.30
2022-09-28T19:44:23.950Z,6.20
2022-09-28T19:46:54.043Z,8.90
2022-09-28T19:49:24.261Z,10.20
2022-09-28T19:52:12.045Z,6.50
2022-09-28T19:54:44.502Z,6.30
2022-09-28T19:57:15.185Z,5.00
2022-09-28T19:59:48.469Z,4.40
2022-09-28T20:02:22.243Z,4.10
2022-09-28T20:04:50.972Z,3.40
2022-09-28T20:07:19.334Z,3.60
2022-09-28T20:09:47.760Z,2.80
2022-09-28T20:12:16.296Z,2.90
2022-09-28T20:14:45.544Z,3.00
2022-09-28T20:17:14.100Z,2.90
2022-09-28T20:19:42.617Z,2.90
2022-09-28T20:22:18.115Z,3.40
2022-09-28T20:24:46.697Z,3.00
2022-09-28T20:27:15.257Z,3.20
2022-09-28T20:29:45.517Z,3.40
2022-09-28T20:32:14.289Z,3.90
2022-09-28T20:34:43.481Z,3.40
2022-09-28T20:37:17.081Z,4.00
2022-09-28T20:39:46.767Z,3.80
2022-09-28T20:42:16.057Z,4.30
2022-09-28T20:44:45.672Z,3.70
2022-09-28T20:47:14.261Z,3.50
2022-09-28T20:49:54.318Z,3.40
2022-09-28T20:52:23.310Z,2.90
2022-09-28T20:54:52.166Z,3.40
2022-09-28T20:57:20.930Z,3.80
2022-09-28T20:59:54.506Z,3.80
2022-09-28T21:02:24.736Z,3.70
2022-09-28T21:04:53.792Z,4.30
2022-09-28T21:07:22.383Z,4.70
2022-09-28T21:09:51.642Z,5.00
2022-09-28T21:12:20.273Z,4.80
2022-09-28T21:14:49.227Z,6.00
2022-09-28T21:17:17.868Z,5.70
2022-09-28T21:19:51.544Z,5.30
2022-09-28T21:22:20.238Z,5.80
2022-09-28T21:24:49.076Z,6.30
2022-09-28T21:27:17.937Z,6.40
2022-09-28T21:29:46.402Z,6.50
2022-09-28T21:32:14.947Z,7.40
2022-09-28T21:34:49.922Z,6.30
2022-09-28T21:37:18.293Z,6.00
2022-09-28T21:39:46.807Z,5.80
2022-09-28T21:42:15.475Z,5.40
2022-09-28T21:44:47.012Z,5.70
2022-09-28T21:47:15.889Z,10.20
2022-09-28T21:49:49.616Z,8.60
2022-09-28T21:52:18.333Z,7.00
2022-09-28T21:54:46.968Z,5.80
2022-09-28T21:57:15.399Z,5.00
2022-09-28T21:59:47.056Z,5.10
2022-09-28T22:02:15.621Z,6.50
2022-09-28T22:04:58.900Z,6.30
2022-09-28T22:07:28.032Z,4.90
2022-09-28T22:09:56.822Z,4.40
2022-09-28T22:12:25.563Z,4.20
2022-09-28T22:15:03.574Z,4.60
2022-09-28T22:20:00.278Z,4.60
2022-09-28T22:22:29.340Z,4.30
2022-09-28T22:24:57.855Z,5.50
2022-09-28T22:27:28.379Z,6.30
2022-09-28T22:29:57.046Z,6.10
2022-09-28T22:32:26.902Z,6.00
2022-09-28T22:34:55.319Z,6.00
2022-09-28T22:37:26.479Z,6.10
2022-09-28T22:39:55.315Z,6.80
2022-09-28T22:42:23.887Z,7.00
2022-09-28T22:44:52.347Z,6.10
2022-09-28T22:47:21.062Z,5.80
2022-09-28T22:49:49.520Z,5.70
2022-09-28T22:52:17.917Z,5.60
2022-09-28T22:54:47.614Z,6.30
2022-09-28T22:57:16.076Z,5.40
2022-09-28T22:59:44.739Z,5.70
2022-09-28T23:02:15.024Z,5.90
2022-09-28T23:04:43.648Z,5.60
2022-09-28T23:07:15.245Z,5.60
2022-09-28T23:09:43.786Z,5.40
2022-09-28T23:12:14.835Z,5.80
2022-09-28T23:14:43.267Z,5.80
2022-09-28T23:17:14.557Z,5.10
2022-09-28T23:19:43.195Z,6.00
2022-09-28T23:22:12.787Z,5.00
2022-09-28T23:24:41.237Z,5.10
2022-09-28T23:27:09.881Z,5.20
2022-09-28T23:29:45.747Z,4.50
2022-09-28T23:32:15.969Z,4.90
2022-09-28T23:34:44.496Z,5.20
2022-09-28T23:37:13.418Z,5.20
2022-09-28T23:39:43.386Z,4.80
2022-09-28T23:42:13.067Z,5.40
2022-09-28T23:44:41.644Z,5.10
2022-09-28T23:47:10.199Z,5.10
2022-09-28T23:49:38.797Z,5.20
2022-09-28T23:52:09.383Z,4.70
2022-09-28T23:54:38.013Z,5.40
2022-09-28T23:57:07.587Z,4.90
2022-09-28T23:59:36.224Z,5.30
